Flight Track Log - Related Links

Times and Time Zones

All times are in EDT time to prevent confusion due to time zone crossing. See the JBU100 flight status page for this flight to view local times or setup timezone preferences in your user account.

Time Position Orientation Groundspeed Altitude Reporting Facility
EDT Latitude Longitude Course Direction KTS MPH feet Rate Location/Type
Wed 01:43:00 AM 33.8812 -118.5740 185° South 274 315 4,700  Level FlightAware ADS-B
Wed 01:43:09 AM 33.8728 -118.5738 175° South 276 318 5,000 2,927 Climbing FlightAware ADS-B
Wed 01:43:41 AM 33.8293 -118.5634 168° South 276 318 6,700 2,830 Climbing FlightAware ADS-B
Wed 01:44:02 AM 33.8061 -118.5557 165° South 276 318 7,500 2,634 Climbing FlightAware ADS-B
Wed 01:44:22 AM 33.7798 -118.5472 165° South 275 316 8,500 2,449 Climbing FlightAware ADS-B
Wed 01:44:51 AM 33.7426 -118.5356 165° South 291 335 9,500 2,377 Climbing FlightAware ADS-B
Wed 01:45:15 AM 33.7149 -118.5252 146° Southeast 300 345 10,600 2,615 Climbing FlightAware ADS-B
Wed 01:45:30 AM 33.6955 -118.5067 129° Southeast 307 353 11,200 1,909 Climbing FlightAware ADS-B
Wed 01:45:37 AM 33.6901 -118.4973 121° Southeast 310 357 11,300 600 Climbing FlightAware ADS-B
Wed 01:45:40 AM 33.6888 -118.4943 118° Southeast 311 358 11,300 2,483 Level FlightAware ADS-B
Wed 01:46:06 AM 33.6752 -118.4493 108° East 316 364 12,500 2,400 Climbing FlightAware ADS-B
Wed 01:46:20 AM 33.6701 -118.4312 109° East 318 366 12,900 1,655 Climbing FlightAware ADS-B
Wed 01:46:35 AM 33.6615 -118.4011 109° East 331 381 13,300 1,674 Climbing FlightAware ADS-B
Wed 01:47:03 AM 33.6494 -118.3599 106° East 343 395 14,100 1,667 Climbing FlightAware ADS-B
Wed 01:47:11 AM 33.6449 -118.3363 97° East 346 398 14,300 1,579 Climbing FlightAware ADS-B
Wed 01:47:22 AM 33.6439 -118.3177 92° East 349 402 14,600 2,000 Climbing FlightAware ADS-B
Wed 01:47:44 AM 33.6434 -118.2707 90° East 353 406 15,400 1,784 Climbing FlightAware ADS-B
Wed 01:47:59 AM 33.6436 -118.2440 89° East 362 417 15,700 1,500 Climbing FlightAware ADS-B
Wed 01:48:16 AM 33.6439 -118.2071 89° East 370 426 16,200 1,622 Climbing FlightAware ADS-B
Wed 01:48:36 AM 33.6441 -118.1651 90° East 378 435 16,700 1,400 Climbing FlightAware ADS-B
Wed 01:48:46 AM 33.6442 -118.1432 89° East 382 440 16,900 1,463 Climbing FlightAware ADS-B
Wed 01:49:17 AM 33.6442 -118.0789 90° East 393 452 17,700 1,500 Climbing FlightAware ADS-B
Wed 01:49:46 AM 33.6441 -118.0131 90° East 401 461 18,400 1,538 Climbing FlightAware ADS-B
Wed 01:49:56 AM 33.6441 -117.9922 90° East 403 464 18,700 1,600 Climbing FlightAware ADS-B
Wed 01:50:16 AM 33.6440 -117.9464 90° East 406 467 19,200 1,500 Climbing FlightAware ADS-B
Wed 01:50:36 AM 33.6439 -117.9016 90° East 407 468 19,700 1,400 Climbing FlightAware ADS-B
Wed 01:50:46 AM 33.6439 -117.8789 90° East 409 471 19,900 1,500 Climbing FlightAware ADS-B
Wed 01:51:16 AM 33.6398 -117.8111 97° East 412 474 20,700 1,737 Climbing FlightAware ADS-B
Wed 01:51:24 AM 33.6379 -117.7942 98° East 414 476 21,000 1,600 Climbing FlightAware ADS-B
Wed 01:51:46 AM 33.6319 -117.7422 97° East 416 479 21,500 1,385 Climbing FlightAware ADS-B
Wed 01:52:16 AM 33.6242 -117.6725 97° East 419 482 22,200 1,455 Climbing FlightAware ADS-B
Wed 01:52:19 AM 33.6245 -117.6760 98° East 420 483 22,300 1,400 Climbing FlightAware ADS-B
Wed 01:52:46 AM 33.6167 -117.6045 97° East 421 484 22,900 1,429 Climbing FlightAware ADS-B
Wed 01:53:01 AM 33.6129 -117.5704 98° East 423 487 23,300 1,600 Climbing FlightAware ADS-B
Wed 01:53:16 AM 33.6088 -117.5339 97° East 422 486 23,700 1,467 Climbing FlightAware ADS-B
Wed 01:53:46 AM 33.6011 -117.4650 97° East 422 486 24,400 1,400 Climbing FlightAware ADS-B
Wed 01:54:16 AM 33.5932 -117.3946 97° East 424 488 25,100 2,063 Climbing FlightAware ADS-B
Wed 01:54:18 AM 33.5929 -117.3921 98° East 429 494 25,500 1,000 Climbing FlightAware ADS-B (KBNG)
Wed 01:54:46 AM 33.5853 -117.3240 97° East 430 495 25,600 419 Climbing FlightAware ADS-B
Wed 01:55:01 AM 33.5819 -117.2940 98° East 434 499 25,800 1,000 Climbing FlightAware ADS-B
Wed 01:55:16 AM 33.5771 -117.2523 97° East 436 502 26,100 1,200 Climbing FlightAware ADS-B
Wed 01:55:41 AM 33.5716 -117.2047 98° East 440 506 26,600 968 Climbing FlightAware ADS-B
Wed 01:55:47 AM 33.5692 -117.1835 97° East 440 506 26,600 857 Level FlightAware ADS-B
Wed 01:56:16 AM 33.5607 -117.1090 97° East 445 512 27,100 1,059 Climbing FlightAware ADS-B
Wed 01:56:21 AM 33.5655 -117.1516 98° East 446 513 27,200 1,000 Climbing FlightAware ADS-B (KBNG)
Wed 01:56:46 AM 33.5528 -117.0405 97° East 450 518 27,600 889 Climbing FlightAware ADS-B
Wed 01:57:15 AM 33.5437 -116.9632 98° East 456 525 28,000 857 Climbing FlightAware ADS-B (KBNG)
Wed 01:57:21 AM 33.5421 -116.9493 97° East 456 525 28,100 938 Climbing FlightAware ADS-B
Wed 01:57:47 AM 33.5344 -116.8833 98° East 462 532 28,500 806 Climbing FlightAware ADS-B (KBNG)
Wed 01:58:28 AM 33.5226 -116.7841 98° East 467 537 29,000 822 Climbing FlightAware ADS-B (KBNG)
Wed 01:59:00 AM 33.5121 -116.6959 98° East 471 542 29,500 811 Climbing FlightAware ADS-B (KBNG)
Wed 01:59:42 AM 33.4994 -116.5881 98° East 476 548 30,000 759 Climbing FlightAware ADS-B
Wed 02:00:19 AM 33.4894 -116.5056 98° East 479 551 30,500 750 Climbing FlightAware ADS-B (KBNG)
Wed 02:01:02 AM 33.4745 -116.3824 98° East 482 555 31,000 740 Climbing FlightAware ADS-B
Wed 02:01:32 AM 33.4644 -116.2984 98° East 484 557 31,400 900 Climbing FlightAware ADS-B (KBNG)
Wed 02:02:02 AM 33.4558 -116.2284 98° East 484 557 31,900 857 Climbing FlightAware ADS-B
Wed 02:02:42 AM 33.4414 -116.1120 98° East 484 557 32,400 761 Climbing FlightAware ADS-B
Wed 02:03:13 AM 33.4314 -116.0313 98° East 485 558 32,800 771 Climbing FlightAware ADS-B (KBNG)
Wed 02:03:52 AM 33.4222 -115.9562 98° East 483 556 33,300 671 Climbing FlightAware ADS-B
Wed 02:06:03 AM 33.3745 -115.5803 99° East 488 562 34,700 479 Climbing FlightAware ADS-B (KBNG)
Wed 02:07:25 AM 33.3500 -115.3981 99° East 487 560 35,000 127 Climbing Los Angeles Center
Wed 02:08:25 AM 33.3286 -115.2344 99° East 495 570 35,000  Level Los Angeles Center
Wed 02:09:26 AM 33.3036 -115.0375 99° East 500 575 35,000  Level Los Angeles Center
Wed 02:10:26 AM 33.2806 -114.8744 100° East 500 575 35,000  Level Los Angeles Center
Wed 02:11:27 AM 33.2600 -114.7108 99° East 500 575 35,000  Level Los Angeles Center
Wed 02:12:28 AM 33.2364 -114.5467 100° East 502 578 35,000  Level Los Angeles Center
Wed 02:13:28 AM 33.2150 -114.3842 99° East 500 575 35,000 -58 Level Los Angeles Center
Wed 02:14:11 AM 33.2047 -114.2889 97° East 499 574 34,900  Descending Albuquerque Center
Wed 02:19:27 AM 33.0760 -113.4034 100° East 497 572 35,000 15 Climbing FlightAware ADS-B (VRMM / MLE)
Wed 02:20:57 AM 33.0408 -113.1638 100° East 496 571 35,000  Level FlightAware ADS-B (VRMM / MLE)
Wed 02:22:35 AM 33.0016 -112.9013 100° East 496 571 35,000  Level FlightAware ADS-B (VRMM / MLE)
Wed 02:22:50 AM 32.9957 -112.8623 99° East 488 562 35,000  Level FlightAware ADS-B (VRMM / MLE)
Wed 02:23:20 AM 32.9961 -112.8651 99° East 488 562 35,000  Level FlightAware ADS-B (VRMM / MLE)
Wed 02:23:52 AM 32.9705 -112.6961 99° East 489 563 35,000  Level FlightAware ADS-B (VRMM / MLE)
Wed 02:24:25 AM 32.9575 -112.6112 100° East 491 565 35,000  Level FlightAware ADS-B (KTLH)
Wed 02:25:05 AM 32.9411 -112.5046 100° East 491 565 35,000  Level FlightAware ADS-B (KTLH)
Wed 02:25:46 AM 32.9243 -112.3955 100° East 491 565 35,000  Level FlightAware ADS-B (KTLH)
Wed 02:26:21 AM 32.9096 -112.3011 100° East 489 563 35,000  Level FlightAware ADS-B (VRMM / MLE)
Wed 02:26:53 AM 32.8967 -112.2182 101° East 489 563 35,000  Level FlightAware ADS-B (KTLH)
Wed 02:27:25 AM 32.8833 -112.1327 100° East 488 562 35,000  Level FlightAware ADS-B (VRMM / MLE)
Wed 02:27:35 AM 32.8789 -112.1050 100° East 488 562 35,000  Level FlightAware ADS-B (VRMM / MLE)
Wed 02:27:56 AM 32.8706 -112.0521 100° East 488 562 35,000  Level FlightAware ADS-B (VRMM / MLE)
Wed 02:28:26 AM 32.8579 -111.9715 100° East 489 563 35,000  Level FlightAware ADS-B (VRMM / MLE)
Wed 02:28:54 AM 32.8459 -111.8965 100° East 489 563 35,000  Level FlightAware ADS-B (VRMM / MLE)
Wed 02:29:25 AM 32.8330 -111.8152 100° East 490 564 35,000  Level FlightAware ADS-B (VRMM / MLE)
Wed 02:29:35 AM 32.8292 -111.7892 98° East 490 564 35,000  Level FlightAware ADS-B (VRMM / MLE)
Wed 02:29:44 AM 32.8265 -111.7653 96° East 491 565 35,000  Level FlightAware ADS-B (VRMM / MLE)
Wed 02:30:03 AM 32.8223 -111.7149 95° East 491 565 35,000  Level FlightAware ADS-B
Wed 02:30:38 AM 32.8149 -111.6216 96° East 491 565 35,000  Level FlightAware ADS-B
Wed 02:31:02 AM 32.8097 -111.5546 94° East 491 565 35,000  Level FlightAware ADS-B (VRMM / MLE)
Wed 02:31:33 AM 32.8035 -111.4727 94° East 491 565 35,000  Level FlightAware ADS-B (VRMM / MLE)
Wed 02:32:05 AM 32.7969 -111.3895 96° East 492 566 35,000  Level FlightAware ADS-B (VRMM / MLE)
Wed 02:32:36 AM 32.7904 -111.3099 96° East 492 566 35,000  Level FlightAware ADS-B
Wed 02:33:12 AM 32.7821 -111.2075 96° East 490 564 35,000  Level FlightAware ADS-B (VRMM / MLE)
Wed 02:33:55 AM 32.7730 -111.0990 96° East 491 565 35,000  Level FlightAware ADS-B
Wed 02:34:25 AM 32.7656 -111.0118 96° East 492 566 35,000  Level FlightAware ADS-B
Wed 02:34:55 AM 32.7588 -110.9315 96° East 494 568 35,000  Level FlightAware ADS-B (VRMM / MLE)
Wed 02:35:32 AM 32.7501 -110.8305 96° East 494 568 35,000  Level FlightAware ADS-B (VRMM / MLE)
Wed 02:36:03 AM 32.7430 -110.7490 96° East 493 567 35,000  Level FlightAware ADS-B
Wed 02:36:33 AM 32.7359 -110.6671 96° East 494 568 35,000  Level FlightAware ADS-B
Wed 02:37:05 AM 32.7282 -110.5794 96° East 494 568 35,000  Level FlightAware ADS-B (VRMM / MLE)
Wed 02:37:36 AM 32.7210 -110.4985 96° East 493 567 35,000  Level FlightAware ADS-B
Wed 02:38:15 AM 32.7116 -110.3930 96° East 494 568 35,000  Level FlightAware ADS-B
Wed 02:38:53 AM 32.7024 -110.2909 96° East 494 568 35,000  Level FlightAware ADS-B
Wed 02:39:31 AM 32.6931 -110.1884 96° East 491 565 35,000  Level FlightAware ADS-B (KTLH)
Wed 02:40:05 AM 32.6847 -110.0967 96° East 490 564 35,000  Level FlightAware ADS-B (VRMM / MLE)
Wed 02:40:45 AM 32.6750 -109.9915 96° East 489 563 35,000  Level FlightAware ADS-B (VRMM / MLE)
Wed 02:41:21 AM 32.6659 -109.8945 96° East 489 563 35,000  Level FlightAware ADS-B
Wed 02:41:53 AM 32.6581 -109.8111 96° East 488 562 35,000  Level FlightAware ADS-B
Wed 02:42:36 AM 32.6484 -109.7091 97° East 488 562 35,000  Level FlightAware ADS-B
Wed 02:43:13 AM 32.6378 -109.5986 97° East 489 563 35,000  Level FlightAware ADS-B
Wed 02:43:56 AM 32.6268 -109.4845 97° East 489 563 35,000  Level FlightAware ADS-B
Wed 02:44:16 AM 32.6215 -109.4300 96° East 489 563 35,000  Level FlightAware ADS-B (VRMM / MLE)
Wed 02:44:23 AM 32.6198 -109.4129 97° East 490 564 35,000  Level FlightAware ADS-B
Wed 02:44:40 AM 32.6152 -109.3658 96° East 490 564 35,000  Level FlightAware ADS-B (VRMM / MLE)
Wed 02:45:23 AM 32.6040 -109.2522 96° East 490 564 35,000  Level FlightAware ADS-B
Wed 02:46:16 AM 32.6198 -109.4129 97° East 490 564 35,000  Level FlightAware ADS-B
Wed 02:46:48 AM 32.6202 -109.4170 97° East 490 564 35,000  Level FlightAware ADS-B
Wed 02:48:36 AM 32.5660 -108.8741 97° East 489 563 35,000  Level FlightAware ADS-B
Wed 02:49:10 AM 32.5616 -108.8310 97° East 490 564 35,000  Level FlightAware ADS-B
Wed 02:49:42 AM 32.5442 -108.6621 97° East 489 563 35,000  Level FlightAware ADS-B
Wed 02:50:34 AM 32.5193 -108.4251 97° East 490 564 35,000  Level FlightAware ADS-B (VRMM / MLE)
Wed 02:51:21 AM 32.5069 -108.3131 97° East 487 560 35,000  Level Albuquerque Center
Wed 02:52:21 AM 32.4892 -108.1564 98° East 487 560 35,000  Level Albuquerque Center
Wed 02:53:21 AM 32.4719 -107.9992 97° East 486 559 35,000  Level Albuquerque Center
Wed 02:54:21 AM 32.4544 -107.8414 97° East 486 559 35,000 -50 Level Albuquerque Center
Wed 02:55:22 AM 32.4378 -107.6908 97° East 487 560 34,900 -50 Descending Albuquerque Center
Wed 02:56:22 AM 32.4200 -107.5325 98° East 487 560 34,900 50 Level Albuquerque Center
Wed 02:57:22 AM 32.4008 -107.3622 98° East 489 563 35,000 50 Climbing Albuquerque Center
Wed 02:58:23 AM 32.3811 -107.1856 97° East 495 570 35,000 50 Level Albuquerque Center
Wed 02:59:23 AM 32.3639 -107.0225 97° East 499 574 35,100  Climbing Albuquerque Center
Wed 03:00:24 AM 32.3444 -106.8658 98° East 498 573 35,000 -100 Descending Albuquerque Center
Wed 03:01:23 AM 32.3258 -106.7058 98° East 496 571 34,900 -50 Descending Albuquerque Center
Wed 03:02:24 AM 32.3067 -106.5458 98° East 496 571 34,900 50 Level Albuquerque Center
Wed 03:03:24 AM 32.2861 -106.3844 99° East 496 571 35,000 50 Climbing Albuquerque Center
Wed 03:04:24 AM 32.2656 -106.2222 98° East 496 571 35,000 -50 Level Albuquerque Center
Wed 03:05:25 AM 32.2456 -106.0611 98° East 496 571 34,900  Descending Albuquerque Center
Wed 03:06:25 AM 32.2244 -105.8994 99° East 496 571 35,000 50 Climbing Albuquerque Center
Wed 03:07:25 AM 32.2056 -105.7383 98° East 496 571 35,000  Level Albuquerque Center
Wed 03:08:26 AM 32.1833 -105.5778 99° East 496 571 35,000  Level Albuquerque Center
Wed 03:09:26 AM 32.1631 -105.4150 98° East 496 571 35,000  Level Albuquerque Center
Wed 03:10:26 AM 32.1417 -105.2539 99° East 497 572 35,000  Level Albuquerque Center
Wed 03:11:26 AM 32.1211 -105.0917 98° East 497 572 35,000  Level Albuquerque Center
Wed 03:12:27 AM 32.0992 -104.9275 99° East 501 577 35,000  Level Albuquerque Center
Wed 03:13:27 AM 32.0764 -104.7650 99° East 501 577 35,000  Level Albuquerque Center
Wed 03:14:27 AM 32.0542 -104.5992 99° East 510 587 35,000  Level Albuquerque Center
Wed 03:15:28 AM 32.0319 -104.4383 99° East 505 581 35,000 -50 Level Albuquerque Center
Wed 03:16:28 AM 32.0103 -104.2783 99° East 498 573 34,900 -50 Descending Albuquerque Center
Wed 03:17:28 AM 31.9881 -104.1189 99° East 496 571 34,900 50 Level Albuquerque Center
Wed 03:18:28 AM 31.9653 -103.9642 100° East 496 571 35,000 50 Climbing Albuquerque Center
Wed 03:19:29 AM 31.9419 -103.8050 100° East 496 571 35,000  Level Albuquerque Center
Wed 03:20:29 AM 31.9208 -103.6483 99° East 492 566 35,000  Level Albuquerque Center
Wed 03:21:29 AM 31.8981 -103.4889 100° East 492 566 35,000  Level Albuquerque Center
Wed 03:22:30 AM 31.8739 -103.3286 100° East 496 571 35,000  Level Albuquerque Center
Wed 03:23:30 AM 31.8494 -103.1686 100° East 497 572 35,000  Level Albuquerque Center
Wed 03:24:30 AM 31.8222 -102.9858 100° East 497 572 35,000 -50 Level Albuquerque Center
Wed 03:25:30 AM 31.7975 -102.8264 100° East 497 572 34,900  Descending Albuquerque Center
Wed 03:26:31 AM 31.7728 -102.6658 100° East 497 572 35,000 50 Climbing Albuquerque Center
Wed 03:27:31 AM 31.7481 -102.5047 100° East 497 572 35,000  Level Albuquerque Center
Wed 03:28:31 AM 31.7236 -102.3436 100° East 497 572 35,000  Level Albuquerque Center
Wed 03:29:31 AM 31.6994 -102.1822 100° East 497 572 35,000  Level Albuquerque Center
Wed 03:30:32 AM 31.6733 -102.0181 101° East 504 580 35,000  Level Albuquerque Center
Wed 03:31:04 AM 31.6628 -101.9547 101° East 500 575 35,000  Level Houston Center
Wed 03:31:57 AM 31.6358 -101.7919 101° East 501 577 35,000  Level Fort Worth Center
Wed 03:32:57 AM 31.6092 -101.6303 101° East 502 578 35,000  Level Fort Worth Center
Wed 03:33:57 AM 31.5828 -101.4703 101° East 501 577 35,000  Level Fort Worth Center
Wed 03:34:57 AM 31.5561 -101.3086 101° East 503 579 35,000  Level Fort Worth Center
Wed 03:35:57 AM 31.5292 -101.1478 101° East 503 579 35,000  Level Fort Worth Center
Wed 03:36:58 AM 31.5025 -100.9867 101° East 504 580 35,000  Level Fort Worth Center
Wed 03:37:58 AM 31.4767 -100.8258 101° East 503 579 35,000  Level Fort Worth Center
Wed 03:38:58 AM 31.4492 -100.6661 101° East 503 579 35,000  Level Fort Worth Center
Wed 03:39:58 AM 31.4272 -100.5322 101° East 502 578 35,000  Level Fort Worth Center
Wed 03:45:49 AM 31.2568 -99.5624 101° East 510 587 35,000  Level FlightAware ADS-B
Wed 03:46:19 AM 31.2439 -99.4904 101° East 511 588 35,000  Level FlightAware ADS-B
Wed 03:46:50 AM 31.2308 -99.4184 101° East 512 589 35,000 102 Level FlightAware ADS-B
Wed 03:47:18 AM 31.2144 -99.3281 101° East 511 588 35,100  Climbing FlightAware ADS-B
Wed 03:47:49 AM 31.1983 -99.2392 101° East 511 588 35,000 -98 Descending FlightAware ADS-B
Wed 03:48:19 AM 31.1875 -99.1801 101° East 510 587 35,000  Level FlightAware ADS-B
Wed 03:48:45 AM 31.1713 -99.0918 102° East 510 587 35,000  Level FlightAware ADS-B
Wed 03:49:00 AM 31.1635 -99.0493 102° East 510 587 35,000  Level FlightAware ADS-B
Wed 03:49:57 AM 31.1390 -98.9171 102° East 513 590 35,000  Level FlightAware ADS-B
Wed 03:50:19 AM 31.1238 -98.8348 102° East 513 590 35,000  Level FlightAware ADS-B
Wed 03:50:40 AM 31.1134 -98.7788 102° East 514 592 35,000  Level FlightAware ADS-B
Wed 03:50:49 AM 31.1087 -98.7536 102° East 513 590 35,000  Level FlightAware ADS-B
Wed 03:51:19 AM 31.0933 -98.6710 102° East 514 592 35,000  Level FlightAware ADS-B
Wed 03:51:49 AM 31.0785 -98.5921 102° East 514 592 35,000  Level FlightAware ADS-B
Wed 03:52:00 AM 31.0730 -98.5625 102° East 515 593 35,000  Level FlightAware ADS-B
Wed 03:52:19 AM 31.0629 -98.5090 102° East 512 589 35,000  Level FlightAware ADS-B
Wed 03:52:38 AM 31.0537 -98.4596 102° East 512 589 35,000  Level FlightAware ADS-B
Wed 03:52:50 AM 31.0478 -98.4286 102° East 511 588 35,000  Level FlightAware ADS-B
Wed 03:53:19 AM 31.0333 -98.3518 102° East 511 588 35,000  Level FlightAware ADS-B
Wed 03:53:20 AM 31.0329 -98.3495 102° East 512 589 35,000  Level FlightAware ADS-B
Wed 03:53:49 AM 31.0172 -98.2674 102° East 513 590 35,000  Level FlightAware ADS-B
Wed 03:54:00 AM 31.0118 -98.2393 103° East 513 590 35,000  Level FlightAware ADS-B
Wed 03:54:19 AM 31.0020 -98.1881 102° East 514 592 35,000  Level FlightAware ADS-B
Wed 03:54:41 AM 30.9910 -98.1305 103° East 514 592 35,000  Level FlightAware ADS-B
Wed 03:54:49 AM 30.9864 -98.1064 102° East 514 592 35,000  Level FlightAware ADS-B
Wed 03:55:19 AM 30.9707 -98.0250 102° East 516 594 35,000  Level FlightAware ADS-B
Wed 03:55:21 AM 30.9700 -98.0209 103° East 516 594 35,000  Level FlightAware ADS-B
Wed 03:55:49 AM 30.9554 -97.9452 102° East 517 595 35,000  Level FlightAware ADS-B
Wed 03:56:00 AM 30.9496 -97.9150 103° East 518 596 35,000  Level FlightAware ADS-B
Wed 03:56:11 AM 30.9435 -97.8837 103° East 518 596 35,000  Level FlightAware ADS-B
Wed 03:56:20 AM 30.9392 -97.8618 102° East 517 595 35,000  Level FlightAware ADS-B
Wed 03:56:33 AM 30.9320 -97.8246 103° East 518 596 35,000  Level FlightAware ADS-B (KGTU)
Wed 03:56:49 AM 30.9235 -97.7812 102° East 517 595 35,000  Level FlightAware ADS-B
Wed 03:57:02 AM 30.9168 -97.7464 103° East 518 596 35,000  Level FlightAware ADS-B
Wed 03:57:14 AM 30.9103 -97.7134 103° East 519 597 35,000  Level FlightAware ADS-B (KGTU)
Wed 03:57:18 AM 30.9088 -97.7053 102° East 518 596 35,000  Level FlightAware ADS-B
Wed 03:57:33 AM 30.8999 -97.6602 103° East 519 597 35,000  Level FlightAware ADS-B
Wed 03:57:49 AM 30.8917 -97.6185 102° East 517 595 35,000  Level FlightAware ADS-B
Wed 03:57:53 AM 30.8894 -97.6063 103° East 518 596 35,000  Level FlightAware ADS-B (KGTU)
Wed 03:58:09 AM 30.8807 -97.5623 103° East 519 597 35,000  Level FlightAware ADS-B
Wed 03:58:20 AM 30.8759 -97.5378 102° East 519 597 35,000  Level FlightAware ADS-B
Wed 03:58:42 AM 30.8644 -97.4793 103° East 519 597 35,000  Level FlightAware ADS-B
Wed 03:58:49 AM 30.8595 -97.4543 102° East 519 597 35,000  Level FlightAware ADS-B
Wed 03:59:00 AM 30.8535 -97.4242 103° East 519 597 35,000  Level FlightAware ADS-B
Wed 03:59:14 AM 30.8463 -97.3878 103° East 518 596 35,000  Level FlightAware ADS-B (KGTU)
Wed 03:59:19 AM 30.8439 -97.3756 102° East 519 597 35,000  Level FlightAware ADS-B
Wed 03:59:49 AM 30.8276 -97.2934 103° East 518 596 35,000  Level FlightAware ADS-B
Wed 03:59:52 AM 30.8258 -97.2841 103° East 519 597 35,000  Level FlightAware ADS-B (KGTU)
Wed 04:00:19 AM 30.8113 -97.2118 103° East 519 597 35,000  Level FlightAware ADS-B
Wed 04:00:22 AM 30.8095 -97.2024 103° East 519 597 35,000  Level FlightAware ADS-B
Wed 04:00:49 AM 30.7947 -97.1283 103° East 519 597 35,000  Level FlightAware ADS-B
Wed 04:01:00 AM 30.7890 -97.0999 103° East 519 597 35,000  Level FlightAware ADS-B
Wed 04:01:19 AM 30.7787 -97.0488 103° East 520 598 35,000  Level FlightAware ADS-B
Wed 04:01:49 AM 30.7618 -96.9646 103° East 522 601 35,000  Level FlightAware ADS-B
Wed 04:02:02 AM 30.7658 -96.9843 103° East 523 602 35,000  Level FlightAware ADS-B
Wed 04:02:19 AM 30.7456 -96.8847 103° East 523 602 35,000  Level FlightAware ADS-B
Wed 04:02:38 AM 30.7350 -96.8322 103° East 525 604 35,000  Level FlightAware ADS-B
Wed 04:02:49 AM 30.7290 -96.8029 103° East 525 604 35,000  Level FlightAware ADS-B
Wed 04:03:20 AM 30.7117 -96.7181 103° East 526 605 35,000  Level FlightAware ADS-B
Wed 04:03:50 AM 30.6951 -96.6368 103° East 525 604 35,000  Level FlightAware ADS-B
Wed 04:04:19 AM 30.6785 -96.5557 103° East 523 602 35,000  Level FlightAware ADS-B
Wed 04:04:50 AM 30.6614 -96.4722 103° East 521 600 35,000  Level FlightAware ADS-B
Wed 04:05:19 AM 30.6447 -96.3916 103° East 521 600 35,000  Level FlightAware ADS-B
Wed 04:05:49 AM 30.6283 -96.3122 103° East 521 600 35,000  Level FlightAware ADS-B
Wed 04:06:19 AM 30.6113 -96.2299 103° East 521 600 35,000  Level FlightAware ADS-B
Wed 04:06:49 AM 30.5943 -96.1482 103° East 521 600 35,000  Level FlightAware ADS-B
Wed 04:07:19 AM 30.5777 -96.0682 103° East 521 600 35,000  Level FlightAware ADS-B
Wed 04:07:49 AM 30.5602 -95.9851 103° East 524 603 35,000  Level FlightAware ADS-B
Wed 04:08:19 AM 30.5428 -95.9029 103° East 526 605 35,000  Level FlightAware ADS-B
Wed 04:08:49 AM 30.5258 -95.8223 103° East 527 606 35,000  Level FlightAware ADS-B
Wed 04:09:19 AM 30.5081 -95.7380 103° East 527 606 35,000  Level FlightAware ADS-B
Wed 04:09:49 AM 30.4908 -95.6569 103° East 527 606 35,000  Level FlightAware ADS-B
Wed 04:10:19 AM 30.4730 -95.5734 103° East 526 605 35,000  Level FlightAware ADS-B
Wed 04:10:49 AM 30.4556 -95.4925 103° East 525 604 35,000  Level FlightAware ADS-B
Wed 04:11:19 AM 30.4378 -95.4094 103° East 523 602 35,000  Level FlightAware ADS-B
Wed 04:11:49 AM 30.4205 -95.3289 103° East 524 603 35,000  Level FlightAware ADS-B
Wed 04:12:19 AM 30.4028 -95.2472 104° East 522 601 35,000  Level FlightAware ADS-B
Wed 04:12:50 AM 30.3849 -95.1645 104° East 523 602 35,000  Level FlightAware ADS-B
Wed 04:13:19 AM 30.3678 -95.0858 104° East 523 602 35,000  Level FlightAware ADS-B
Wed 04:13:49 AM 30.3499 -95.0037 104° East 522 601 35,000  Level FlightAware ADS-B
Wed 04:14:19 AM 30.3319 -94.9216 104° East 525 604 35,000  Level FlightAware ADS-B
Wed 04:14:49 AM 30.3145 -94.8427 104° East 525 604 35,000  Level FlightAware ADS-B
Wed 04:15:19 AM 30.2961 -94.7596 104° East 526 605 35,000  Level FlightAware ADS-B
Wed 04:15:49 AM 30.2781 -94.6777 104° East 526 605 35,000  Level FlightAware ADS-B
Wed 04:16:27 AM 30.2569 -94.5818 104° East 527 606 35,000  Level FlightAware ADS-B
Wed 04:16:54 AM 30.2389 -94.5014 104° East 528 608 35,000  Level FlightAware ADS-B
Wed 04:17:27 AM 30.2187 -94.4111 104° East 529 609 35,000  Level FlightAware ADS-B
Wed 04:17:57 AM 30.2002 -94.3281 104° East 531 611 35,000  Level FlightAware ADS-B
Wed 04:18:26 AM 30.1842 -94.2566 104° East 531 611 35,000  Level FlightAware ADS-B
Wed 04:18:55 AM 30.1644 -94.1686 104° East 533 613 35,000  Level FlightAware ADS-B
Wed 04:19:26 AM 30.1453 -94.0839 104° East 535 616 35,000  Level FlightAware ADS-B
Wed 04:19:57 AM 30.1259 -93.9981 104° East 537 618 35,000  Level FlightAware ADS-B
Wed 04:20:26 AM 30.1070 -93.9153 104° East 539 620 35,000  Level FlightAware ADS-B
Wed 04:20:57 AM 30.0874 -93.8298 104° East 540 621 35,000  Level FlightAware ADS-B
Wed 04:21:25 AM 30.0697 -93.7523 104° East 542 624 35,000  Level FlightAware ADS-B
Wed 04:22:26 AM 30.0336 -93.5956 104° East 545 627 35,000  Level FlightAware ADS-B
Wed 04:23:14 AM 29.9989 -93.4459 104° East 547 629 35,000  Level FlightAware ADS-B
Wed 04:23:44 AM 29.9793 -93.3613 104° East 546 628 35,000  Level FlightAware ADS-B
Wed 04:24:14 AM 29.9599 -93.2780 105° East 545 627 35,000  Level FlightAware ADS-B
Wed 04:24:44 AM 29.9401 -93.1937 105° East 545 627 35,000  Level FlightAware ADS-B
Wed 04:25:15 AM 29.9200 -93.1084 105° East 546 628 35,000  Level FlightAware ADS-B
Wed 04:25:44 AM 29.9005 -93.0254 105° East 545 627 35,000  Level FlightAware ADS-B
Wed 04:26:14 AM 29.8805 -92.9409 105° East 546 628 35,000  Level FlightAware ADS-B
Wed 04:26:44 AM 29.8606 -92.8567 105° East 545 627 35,000  Level FlightAware ADS-B
Wed 04:27:14 AM 29.8412 -92.7741 105° East 547 629 35,000  Level FlightAware ADS-B
Wed 04:27:44 AM 29.8209 -92.6891 105° East 547 629 35,000  Level FlightAware ADS-B
Wed 04:28:15 AM 29.8004 -92.6036 105° East 548 631 35,000  Level FlightAware ADS-B
Wed 04:28:44 AM 29.7804 -92.5195 105° East 549 632 35,000  Level FlightAware ADS-B
Wed 04:29:14 AM 29.7605 -92.4367 105° East 549 632 35,000  Level FlightAware ADS-B
Wed 04:29:44 AM 29.7399 -92.3513 105° East 550 633 35,000  Level FlightAware ADS-B
Wed 04:30:14 AM 29.7192 -92.2657 105° East 550 633 35,000  Level FlightAware ADS-B
Wed 04:30:45 AM 29.6989 -92.1817 105° East 549 632 35,000  Level FlightAware ADS-B
Wed 04:31:14 AM 29.6786 -92.0984 105° East 550 633 35,000  Level FlightAware ADS-B
Wed 04:31:44 AM 29.6579 -92.0138 105° East 550 633 35,000  Level FlightAware ADS-B
Wed 04:32:14 AM 29.6371 -91.9292 105° East 551 634 35,000  Level FlightAware ADS-B
Wed 04:32:44 AM 29.6162 -91.8443 105° East 553 636 35,000  Level FlightAware ADS-B
Wed 04:33:14 AM 29.5957 -91.7611 105° East 553 636 35,000  Level FlightAware ADS-B
Wed 04:33:44 AM 29.5744 -91.6749 105° East 554 638 35,000  Level FlightAware ADS-B
Wed 04:34:14 AM 29.5540 -91.5922 105° East 554 638 35,000  Level FlightAware ADS-B
Wed 04:34:44 AM 29.5324 -91.5055 105° East 552 635 35,000  Level FlightAware ADS-B
Wed 04:35:14 AM 29.5112 -91.4209 106° East 551 634 35,000  Level FlightAware ADS-B
Wed 04:35:44 AM 29.4931 -91.3485 106° East 551 634 35,000  Level FlightAware ADS-B
Wed 04:36:14 AM 29.4694 -91.2536 105° East 553 636 35,000  Level FlightAware ADS-B
Wed 04:36:42 AM 29.4501 -91.1769 106° East 552 635 35,000  Level FlightAware ADS-B
Wed 04:36:58 AM 29.4383 -91.1301 106° East 552 635 35,000  Level FlightAware ADS-B
Wed 04:37:44 AM 29.4054 -90.9996 106° East 553 636 35,000  Level FlightAware ADS-B
Wed 04:38:12 AM 29.3858 -90.9216 106° East 553 636 35,000 -65 Level FlightAware ADS-B
Wed 04:39:17 AM 29.3483 -90.7739 106° East 551 634 34,900  Descending Houston Center
Wed 04:40:17 AM 29.3042 -90.6031 106° East 554 638 35,000 50 Climbing Houston Center
Wed 04:41:17 AM 29.2606 -90.4319 106° East 559 643 35,000  Level Houston Center
Wed 04:42:18 AM 29.2167 -90.2606 106° East 560 644 35,000  Level Houston Center
Wed 04:43:18 AM 29.1581 -90.0558 108° East 562 647 35,000  Level Houston Center
Wed 04:44:18 AM 29.1089 -89.8928 109° East 556 640 35,000  Level Houston Center
Wed 04:45:18 AM 29.0589 -89.7253 109° East 557 641 35,000  Level Houston Center
Wed 04:46:19 AM 29.0083 -89.5528 108° East 572 658 35,000  Level Houston Center
Wed 04:47:19 AM 28.9581 -89.3828 109° East 574 661 35,000  Level Houston Center
Wed 04:48:19 AM 28.9064 -89.2125 109° East 568 654 35,000  Level Houston Center
Wed 04:49:19 AM 28.8561 -89.0481 109° East 562 647 35,000  Level Houston Center
Wed 04:50:19 AM 28.8058 -88.8786 109° East 560 644 35,000  Level Houston Center
Wed 04:51:20 AM 28.7544 -88.7094 109° East 562 647 35,000  Level Houston Center
Wed 04:52:20 AM 28.7019 -88.5425 110° East 563 648 35,000  Level Houston Center
Wed 04:53:20 AM 28.6506 -88.3744 109° East 564 649 35,000  Level Houston Center
Wed 04:54:20 AM 28.5989 -88.2069 109° East 562 647 35,000  Level Houston Center
Wed 04:55:20 AM 28.5433 -88.0275 109° East 563 648 35,000 -50 Level Houston Center
Wed 04:56:21 AM 28.4914 -87.8608 109° East 562 647 34,900 -50 Descending Houston Center
Wed 04:57:21 AM 28.4389 -87.6944 110° East 562 647 34,900 50 Level Houston Center
Wed 04:58:21 AM 28.3861 -87.5275 110° East 563 648 35,000 50 Climbing Houston Center
Wed 04:59:21 AM 28.3331 -87.3614 110° East 563 648 35,000  Level Houston Center
Wed 05:00:21 AM 28.2808 -87.1956 110° East 563 648 35,000  Level Houston Center
Wed 05:01:22 AM 28.2272 -87.0300 110° East 561 646 35,000 -48 Level Houston Center
Wed 05:02:26 AM 28.1761 -86.8714 110° East 548 631 34,900 -48 Descending Jacksonville Center
Wed 05:03:26 AM 28.1186 -86.6975 111° Southeast 565 650 34,900 50 Level Jacksonville Center
Wed 05:04:26 AM 28.0672 -86.5356 110° East 558 642 35,000 50 Climbing Jacksonville Center
Wed 05:05:26 AM 28.0111 -86.3714 111° Southeast 556 640 35,000  Level Jacksonville Center
Wed 05:06:26 AM 27.9611 -86.2122 110° East 556 640 35,000 -50 Level Jacksonville Center
Wed 05:07:26 AM 27.9069 -86.0461 110° East 561 646 34,900  Descending Jacksonville Center
Wed 05:08:26 AM 27.8522 -85.8944 112° Southeast 545 627 35,000  Climbing Jacksonville Center
Wed 05:09:26 AM 27.7956 -85.7192 110° East 551 634 34,900  Descending Jacksonville Center
Wed 05:10:48 AM 27.7311 -85.5192 110° East 552 635 35,000 42 Climbing Miami Center
Wed 05:11:48 AM 27.6761 -85.3592 111° Southeast 552 635 35,000 -50 Level Miami Center
Wed 05:12:47 AM 27.6144 -85.1781 111° Southeast 538 619 34,900  Descending Miami Center
Wed 05:13:48 AM 27.5642 -85.0264 110° East 524 603 35,000 49 Climbing Miami Center
Wed 05:14:50 AM 27.5100 -84.8714 111° Southeast 530 610 35,000  Level Miami Center
Wed 05:15:47 AM 27.4586 -84.7158 110° East 530 610 35,000 14 Level Miami Center
Wed 05:22:03 AM 27.1140 -83.7314 112° Southeast 528 608 35,100  Climbing FlightAware ADS-B
Wed 05:22:34 AM 27.0863 -83.6526 111° Southeast 524 603 35,000 -19 Descending FlightAware ADS-B
Wed 05:27:24 AM 26.8425 -82.9225 111° Southeast 532 612 35,000 -94 Level FlightAware ADS-B
Wed 05:27:54 AM 26.8180 -82.8494 111° Southeast 526 605 34,500 -1,970 Descending FlightAware ADS-B
Wed 05:28:31 AM 26.7864 -82.7563 111° Southeast 531 611 32,800 -2,597 Descending FlightAware ADS-B
Wed 05:29:01 AM 26.7592 -82.6757 111° Southeast 528 608 31,600 -2,735 Descending FlightAware ADS-B
Wed 05:29:39 AM 26.7299 -82.5897 111° Southeast 531 611 29,700 -2,471 Descending FlightAware ADS-B
Wed 05:30:09 AM 26.7002 -82.5020 111° Southeast 518 596 28,800 -1,935 Descending FlightAware ADS-B
Wed 05:30:41 AM 26.6741 -82.4254 111° Southeast 509 586 27,700 -1,944 Descending FlightAware ADS-B
Wed 05:31:20 AM 26.6417 -82.3306 111° Southeast 496 571 26,500 -1,667 Descending FlightAware ADS-B
Wed 05:31:53 AM 26.6154 -82.2539 111° Southeast 478 550 25,700 -1,890 Descending FlightAware ADS-B
Wed 05:32:33 AM 26.5826 -82.1586 111° Southeast 470 541 24,200 -1,944 Descending FlightAware ADS-B
Wed 05:33:04 AM 26.5595 -82.0917 111° Southeast 459 528 23,400 -1,967 Descending FlightAware ADS-B
Wed 05:33:34 AM 26.5367 -82.0256 111° Southeast 456 525 22,200 -2,300 Descending FlightAware ADS-B
Wed 05:34:04 AM 26.5132 -81.9581 111° Southeast 452 520 21,100 -2,200 Descending FlightAware ADS-B
Wed 05:34:34 AM 26.4904 -81.8926 111° Southeast 449 517 20,000 -2,164 Descending FlightAware ADS-B
Wed 05:35:05 AM 26.4673 -81.8263 111° Southeast 446 513 18,900 -1,967 Descending FlightAware ADS-B
Wed 05:35:35 AM 26.4458 -81.7640 111° Southeast 436 502 18,000 -1,800 Descending FlightAware ADS-B
Wed 05:36:05 AM 26.4251 -81.7043 111° Southeast 428 493 17,100 -1,704 Descending FlightAware ADS-B
Wed 05:36:56 AM 26.3897 -81.6033 111° Southeast 425 489 15,700 -1,737 Descending Miami Center
Wed 05:37:59 AM 26.3489 -81.4864 111° Southeast 411 473 13,800 -1,770 Descending Miami Center
Wed 05:38:58 AM 26.3097 -81.3739 111° Southeast 399 459 12,100 -1,261 Descending Miami Center
Wed 05:39:58 AM 26.2722 -81.2681 112° Southeast 367 422 11,300 -1,000 Descending Miami Center
Wed 05:40:58 AM 26.2347 -81.1628 112° Southeast 344 396 10,100 -1,167 Descending Miami Center
Wed 05:41:10 AM 26.2275 -81.1436 113° Southeast 347 399 9,900 -824 Descending Miami Center
Wed 05:41:49 AM 26.2067 -81.0839 111° Southeast 342 394 9,400 -824 Descending Miami Center
Wed 05:42:01 AM 26.2003 -81.0639 110° East 341 392 9,200 -915 Descending Miami Center
Wed 05:42:48 AM 26.1733 -80.9883 112° Southeast 326 375 8,500 -842 Descending Miami Center
Wed 05:42:58 AM 26.1689 -80.9761 112° Southeast 328 377 8,400 -387 Descending Miami Center
Wed 05:43:50 AM 26.1414 -80.9019 112° Southeast 301 346 8,100 -679 Descending Miami Center
Wed 05:44:44 AM 26.1133 -80.8208 111° Southeast 308 354 7,200 -1,029 Descending Miami Center
Wed 05:45:00 AM 26.1056 -80.8006 113° Southeast 309 356 6,900 -1,000 Descending Miami Center
Wed 05:45:44 AM 26.0922 -80.7261 101° East 327 376 6,200 -871 Descending Miami Center
Wed 05:46:02 AM 26.0944 -80.7033 84° East 323 372 6,000 -179 Descending Miami Center
Wed 05:46:51 AM 26.1039 -80.6158 83° East 319 367 6,000  Level Miami Center
Wed 05:47:51 AM 26.1122 -80.5167 85° East 314 361 6,000  Level Miami Center
Wed 05:48:04 AM 26.1144 -80.5086 73° East 317 365 6,000  Level Miami Center
Wed 05:48:52 AM 26.1228 -80.4200 84° East 316 364 6,000  Level Miami Center
Wed 05:49:04 AM 26.1239 -80.4108 82° East 317 365 6,000 -500 Level Miami Center
Wed 05:49:52 AM 26.1333 -80.3211 83° East 316 364 5,500 -800 Descending Miami Center
Wed 05:50:04 AM 26.1336 -80.3131 88° East 317 365 5,200 -1,475 Descending Miami Center
Wed 05:50:53 AM 26.1414 -80.2267 84° East 301 346 4,000 -1,180 Descending Miami Center
Wed 05:51:05 AM 26.1428 -80.2181 80° East 308 354 4,000 -778 Level Miami Center
Wed 05:51:47 AM 26.1503 -80.1483 83° East 265 305 3,300 -900 Descending Miami Center
Wed 05:52:05 AM 26.1511 -80.1356 86° East 269 310 3,100 -689 Descending Miami Center
Wed 05:52:48 AM 26.1572 -80.0700 84° East 251 289 2,600 -689 Descending Miami Center
Wed 05:53:06 AM 26.1583 -80.0578 84° East 255 293 2,400 -581 Descending Miami Center
Wed 05:53:50 AM 26.1292 -80.0169 128° Southeast 206 237 2,000 -407 Descending Miami Center
Wed 05:54:05 AM 26.1208 -80.0186 190° South 209 241 2,000 -277 Level Miami Center
Wed 05:54:55 AM 26.0878 -80.0439 214° Southwest 139 160 1,700 -500 Descending Miami Center
Wed 05:55:05 AM 26.0867 -80.0461 241° Southwest 153 176 1,500 -600 Descending Miami Center
Wed 05:55:55 AM 26.0769 -80.0825 253° West 128 147 1,100 -484 Descending Miami Center
Wed 05:56:07 AM 26.0758 -80.0842 233° Southwest 132 152 1,000 -764 Descending Miami Center
Wed 05:56:50 AM 26.0767 -80.1194 272° West 136 157 400 -724 Descending Miami Center
Wed 05:57:05 AM 26.0761 -80.1250 264° West 132 152 300 -400 Descending Miami Center
Wed 05:59:00 AM 26.0667 -80.1500 261° West  Level FlightAware Approximate

Login

Don't have an account? Register now (free) for customized features, flight alerts, and more!